createdAt,value
2022-10-13T00:01:01.958Z,21.40
2022-10-13T00:03:03.377Z,21.39
2022-10-13T00:05:04.686Z,21.36
2022-10-13T00:07:05.971Z,21.32
2022-10-13T00:09:07.516Z,21.30
2022-10-13T00:11:08.813Z,21.35
2022-10-13T00:13:10.086Z,21.40
2022-10-13T00:15:11.395Z,21.43
2022-10-13T00:17:12.664Z,21.45
2022-10-13T00:19:15.183Z,21.44
2022-10-13T00:21:16.710Z,21.44
2022-10-13T00:23:17.990Z,21.42
2022-10-13T00:25:19.390Z,21.40
2022-10-13T00:27:20.674Z,21.40
2022-10-13T00:29:21.955Z,21.41
2022-10-13T00:31:23.249Z,21.40
2022-10-13T00:33:24.526Z,21.40
2022-10-13T00:35:25.806Z,21.40
2022-10-13T00:37:27.260Z,21.38
2022-10-13T00:39:28.534Z,21.38
2022-10-13T00:41:29.818Z,21.36
2022-10-13T00:43:31.123Z,21.38
2022-10-13T00:45:32.416Z,21.38
2022-10-13T00:47:33.707Z,21.41
2022-10-13T00:49:35.119Z,21.43
2022-10-13T00:51:36.391Z,21.44
2022-10-13T00:53:37.668Z,21.44
2022-10-13T00:55:38.947Z,21.43
2022-10-13T00:57:40.249Z,21.42
2022-10-13T00:59:41.526Z,21.45
2022-10-13T01:01:42.855Z,21.45
2022-10-13T01:03:44.115Z,21.44
2022-10-13T01:05:45.399Z,21.43
2022-10-13T01:07:49.071Z,21.41
2022-10-13T01:09:50.343Z,21.40
2022-10-13T01:11:52.572Z,21.37
2022-10-13T01:13:53.889Z,21.36
2022-10-13T01:15:55.207Z,21.39
2022-10-13T01:17:56.502Z,21.39
2022-10-13T01:19:57.819Z,21.37
2022-10-13T01:21:59.090Z,21.37
2022-10-13T01:24:00.392Z,21.41
2022-10-13T01:26:01.706Z,21.44
2022-10-13T01:28:02.990Z,21.45
2022-10-13T01:30:04.314Z,21.43
2022-10-13T01:32:05.803Z,21.36
2022-10-13T01:34:07.075Z,21.31
2022-10-13T01:36:08.368Z,21.27
2022-10-13T01:38:09.676Z,21.24
2022-10-13T01:40:10.941Z,21.22
2022-10-13T01:42:13.193Z,21.20
2022-10-13T01:44:16.190Z,21.19
2022-10-13T01:46:17.530Z,21.18
2022-10-13T01:48:18.805Z,21.20
2022-10-13T01:50:20.112Z,21.20
2022-10-13T01:52:21.801Z,21.21
2022-10-13T01:54:23.177Z,21.20
2022-10-13T01:56:24.582Z,21.25
2022-10-13T01:58:25.849Z,21.26
2022-10-13T02:00:27.222Z,21.26
2022-10-13T02:02:28.538Z,21.29
2022-10-13T02:04:29.800Z,21.31
2022-10-13T02:06:31.109Z,21.35
2022-10-13T02:08:32.438Z,21.36
2022-10-13T02:10:33.705Z,21.38
2022-10-13T02:12:34.975Z,21.39
2022-10-13T02:14:36.250Z,21.40
2022-10-13T02:16:37.539Z,21.43
2022-10-13T02:18:38.810Z,21.43
2022-10-13T02:20:40.082Z,21.42
2022-10-13T02:22:41.578Z,21.45
2022-10-13T02:24:42.917Z,21.46
2022-10-13T02:26:44.169Z,21.48
2022-10-13T02:28:45.487Z,21.47
2022-10-13T02:30:46.836Z,21.46
2022-10-13T02:32:48.144Z,21.44
2022-10-13T02:34:49.459Z,21.42
2022-10-13T02:36:50.756Z,21.40
2022-10-13T02:38:52.050Z,21.41
2022-10-13T02:40:54.854Z,21.42
2022-10-13T02:42:56.142Z,21.46
2022-10-13T02:44:57.494Z,21.51
2022-10-13T02:46:58.791Z,21.51
2022-10-13T02:49:00.096Z,21.51
2022-10-13T02:51:01.368Z,21.50
2022-10-13T02:53:02.632Z,21.50
2022-10-13T02:55:03.908Z,21.49
2022-10-13T02:57:05.186Z,21.49
2022-10-13T02:59:06.454Z,21.50
2022-10-13T03:01:07.799Z,21.51
2022-10-13T03:03:09.183Z,21.52
2022-10-13T03:05:10.486Z,21.53
2022-10-13T03:07:11.762Z,21.54
2022-10-13T03:09:13.043Z,21.53
2022-10-13T03:11:14.344Z,21.52
2022-10-13T03:13:15.677Z,21.51
2022-10-13T03:15:16.982Z,21.51
2022-10-13T03:17:18.264Z,21.51
2022-10-13T03:19:19.564Z,21.51
2022-10-13T03:21:20.838Z,21.52
2022-10-13T03:23:22.110Z,21.51
2022-10-13T03:25:23.407Z,21.53
2022-10-13T03:27:24.731Z,21.53
2022-10-13T03:29:26.058Z,21.51
2022-10-13T03:31:27.336Z,21.53
2022-10-13T03:33:28.761Z,21.53
2022-10-13T03:35:30.523Z,21.60
2022-10-13T03:37:31.795Z,21.61
2022-10-13T03:39:33.114Z,21.60
2022-10-13T03:41:34.406Z,21.57
2022-10-13T03:43:35.695Z,21.55
2022-10-13T03:45:36.954Z,21.54
2022-10-13T03:47:38.243Z,21.55
2022-10-13T03:49:39.528Z,21.54
2022-10-13T03:51:40.953Z,21.54
2022-10-13T03:53:42.225Z,21.52
2022-10-13T03:55:43.556Z,21.50
2022-10-13T03:57:44.850Z,21.51
2022-10-13T03:59:46.158Z,21.49
2022-10-13T04:01:47.526Z,21.52
2022-10-13T04:03:48.903Z,21.51
2022-10-13T04:05:50.183Z,21.49
2022-10-13T04:07:51.745Z,21.47
2022-10-13T04:09:53.258Z,21.44
2022-10-13T04:11:54.544Z,21.41
2022-10-13T04:13:55.815Z,21.40
2022-10-13T04:15:57.101Z,21.45
2022-10-13T04:17:58.394Z,21.36
2022-10-13T04:19:59.669Z,21.37
2022-10-13T04:22:00.982Z,21.36
2022-10-13T04:24:02.264Z,20.57
2022-10-13T04:26:03.610Z,21.33
2022-10-13T04:28:05.082Z,21.33
2022-10-13T04:30:06.392Z,21.32
2022-10-13T04:32:07.671Z,21.37
2022-10-13T04:34:08.980Z,21.42
2022-10-13T04:36:10.274Z,21.42
2022-10-13T04:38:11.559Z,21.43
2022-10-13T04:40:12.850Z,21.43
2022-10-13T04:42:14.182Z,21.47
2022-10-13T04:44:15.491Z,21.46
2022-10-13T04:46:17.867Z,21.48
2022-10-13T04:48:19.210Z,21.52
2022-10-13T04:50:20.482Z,21.53
2022-10-13T04:52:21.965Z,21.53
2022-10-13T04:54:23.332Z,21.54
2022-10-13T04:56:24.856Z,21.53
2022-10-13T04:58:26.182Z,21.53
2022-10-13T05:00:27.522Z,21.53
2022-10-13T05:02:28.903Z,21.53
2022-10-13T05:04:30.179Z,21.54
2022-10-13T05:06:31.508Z,21.55
2022-10-13T05:08:33.968Z,21.54
2022-10-13T05:10:35.394Z,20.73
2022-10-13T05:12:36.670Z,21.55
2022-10-13T05:14:37.938Z,21.51
2022-10-13T05:16:39.271Z,21.49
2022-10-13T05:18:40.650Z,21.49
2022-10-13T05:20:41.919Z,21.49
2022-10-13T05:22:43.190Z,21.48
2022-10-13T05:24:44.701Z,21.47
2022-10-13T05:26:46.007Z,21.51
2022-10-13T05:28:47.478Z,21.55
2022-10-13T05:30:48.813Z,21.54
2022-10-13T05:32:53.752Z,21.54
2022-10-13T05:34:55.338Z,21.53
2022-10-13T05:36:56.614Z,21.47
2022-10-13T05:38:57.914Z,21.47
2022-10-13T05:40:59.195Z,21.45
2022-10-13T05:43:00.691Z,21.50
2022-10-13T05:45:01.974Z,21.50
2022-10-13T05:47:07.333Z,21.50
2022-10-13T05:49:08.995Z,21.49
2022-10-13T05:51:10.323Z,21.50
2022-10-13T05:53:11.582Z,21.57
2022-10-13T05:55:12.879Z,21.61
2022-10-13T05:57:14.210Z,20.30
2022-10-13T05:59:15.740Z,21.60
2022-10-13T06:01:17.257Z,21.60
2022-10-13T06:03:18.542Z,21.60
2022-10-13T06:05:19.839Z,21.59
2022-10-13T06:07:21.105Z,21.63
2022-10-13T06:09:22.391Z,21.62
2022-10-13T06:11:23.668Z,21.61
2022-10-13T06:13:24.974Z,21.59
2022-10-13T06:15:28.308Z,21.58
2022-10-13T06:17:29.799Z,21.54
2022-10-13T06:19:31.090Z,21.51
2022-10-13T06:21:32.382Z,21.49
2022-10-13T06:23:33.748Z,21.50
2022-10-13T06:25:35.665Z,21.51
2022-10-13T06:27:36.945Z,21.53
2022-10-13T06:29:38.279Z,21.58
2022-10-13T06:31:39.543Z,21.59
2022-10-13T06:33:40.899Z,21.61
2022-10-13T06:35:42.200Z,21.62
2022-10-13T06:37:43.800Z,21.61
2022-10-13T06:39:45.074Z,21.57
2022-10-13T06:41:46.385Z,21.55
2022-10-13T06:43:47.754Z,19.87
2022-10-13T06:45:49.094Z,18.98
2022-10-13T06:47:50.377Z,18.72
2022-10-13T06:49:51.651Z,18.65
2022-10-13T06:51:52.919Z,18.89
2022-10-13T06:53:54.191Z,19.97
2022-10-13T06:55:55.532Z,20.51
2022-10-13T06:57:56.942Z,20.82
2022-10-13T06:59:58.480Z,20.99
2022-10-13T07:01:59.749Z,21.10
2022-10-13T07:04:01.050Z,21.20
2022-10-13T07:06:02.363Z,21.26
2022-10-13T07:08:03.639Z,21.31
2022-10-13T07:10:04.914Z,21.37
2022-10-13T07:12:07.481Z,21.40
2022-10-13T07:14:08.762Z,21.45
2022-10-13T07:16:10.036Z,21.50
2022-10-13T07:18:11.417Z,21.51
2022-10-13T07:20:12.735Z,21.52
2022-10-13T07:22:14.007Z,21.57
2022-10-13T07:24:15.278Z,21.60
2022-10-13T07:26:16.563Z,21.58
2022-10-13T07:28:17.880Z,21.60
2022-10-13T07:30:19.247Z,21.48
2022-10-13T07:32:20.519Z,21.41
2022-10-13T07:34:22.587Z,21.33
2022-10-13T07:36:24.035Z,21.25
2022-10-13T07:38:25.310Z,21.21
2022-10-13T07:40:26.914Z,21.17
2022-10-13T07:42:28.179Z,21.12
2022-10-13T07:44:29.505Z,21.04
2022-10-13T07:46:30.771Z,21.03
2022-10-13T07:48:32.054Z,21.03
2022-10-13T07:50:33.393Z,21.16
2022-10-13T07:52:34.651Z,21.24
2022-10-13T07:54:36.016Z,21.31
2022-10-13T07:56:37.530Z,21.33
2022-10-13T07:58:38.926Z,21.35
2022-10-13T08:00:40.275Z,21.38
2022-10-13T08:02:41.590Z,21.37
2022-10-13T08:04:42.874Z,21.38
2022-10-13T08:06:44.207Z,21.43
2022-10-13T08:08:45.808Z,21.50
2022-10-13T08:10:47.191Z,21.59
2022-10-13T08:12:48.512Z,21.61
2022-10-13T08:16:56.345Z,21.61
2022-10-13T08:18:57.647Z,21.57
2022-10-13T08:21:23.875Z,21.58
2022-10-13T08:23:20.246Z,21.59
2022-10-13T08:25:21.568Z,21.55
2022-10-13T08:27:22.864Z,20.76
2022-10-13T08:29:24.616Z,21.53
2022-10-13T08:31:26.322Z,21.37
2022-10-13T08:33:27.817Z,21.24
2022-10-13T08:35:34.134Z,21.15
2022-10-13T08:37:36.391Z,21.12
2022-10-13T08:39:37.675Z,21.07
2022-10-13T08:41:39.003Z,21.02
2022-10-13T08:43:54.833Z,21.12
2022-10-13T08:46:01.586Z,21.01
2022-10-13T08:48:03.234Z,21.01
2022-10-13T08:50:04.513Z,20.98
2022-10-13T08:52:05.835Z,20.96
2022-10-13T08:54:07.109Z,21.06
2022-10-13T08:56:08.459Z,21.14
2022-10-13T08:58:09.742Z,21.10
2022-10-13T09:00:11.027Z,21.15
2022-10-13T09:02:12.646Z,21.10
2022-10-13T09:04:13.920Z,21.11
2022-10-13T09:06:15.249Z,21.00
2022-10-13T09:08:16.548Z,20.96
2022-10-13T09:10:18.739Z,20.95
2022-10-13T09:12:28.034Z,20.94
2022-10-13T09:14:29.385Z,20.97
2022-10-13T09:16:30.658Z,21.09
2022-10-13T09:18:32.017Z,21.25
2022-10-13T09:20:33.368Z,21.32
2022-10-13T09:22:34.687Z,21.33
2022-10-13T09:24:36.001Z,21.33
2022-10-13T09:26:37.326Z,21.32
2022-10-13T09:28:38.728Z,21.27
2022-10-13T09:30:40.030Z,21.27
2022-10-13T09:32:41.419Z,21.29
2022-10-13T09:34:42.782Z,21.27
2022-10-13T09:36:44.049Z,21.28
2022-10-13T09:38:45.367Z,21.27
2022-10-13T09:40:46.652Z,21.29
2022-10-13T09:42:47.964Z,21.31
2022-10-13T09:44:49.254Z,21.37
2022-10-13T09:46:50.539Z,21.45
2022-10-13T09:48:51.927Z,21.52
2022-10-13T09:50:53.204Z,21.62
2022-10-13T09:52:54.482Z,21.67
2022-10-13T09:54:55.802Z,21.72
2022-10-13T09:56:57.123Z,21.75
2022-10-13T09:58:58.409Z,21.87
2022-10-13T10:00:59.678Z,21.80
2022-10-13T10:03:00.946Z,21.71
2022-10-13T10:05:02.259Z,21.64
2022-10-13T10:07:03.518Z,21.59
2022-10-13T10:09:05.317Z,21.95
2022-10-13T10:11:06.735Z,22.29
2022-10-13T10:13:08.016Z,22.50
2022-10-13T10:15:09.311Z,22.44
2022-10-13T10:17:10.635Z,22.86
2022-10-13T10:19:11.984Z,22.76
2022-10-13T10:21:14.643Z,22.72
2022-10-13T10:23:15.956Z,22.93
2022-10-13T10:25:17.291Z,22.86
2022-10-13T10:27:21.639Z,22.39
2022-10-13T10:29:22.936Z,22.77
2022-10-13T10:31:24.326Z,22.93
2022-10-13T10:33:25.623Z,22.52
2022-10-13T10:35:27.350Z,22.82
2022-10-13T10:37:28.679Z,23.07
2022-10-13T10:39:29.959Z,23.26
2022-10-13T10:41:31.280Z,23.62
2022-10-13T10:43:32.626Z,23.63
2022-10-13T10:45:33.959Z,23.30
2022-10-13T10:47:35.277Z,23.66
2022-10-13T10:49:36.565Z,23.87
2022-10-13T10:51:37.946Z,23.84
2022-10-13T10:53:39.251Z,23.62
2022-10-13T10:55:40.548Z,23.27
2022-10-13T10:57:41.861Z,23.12
2022-10-13T10:59:43.186Z,23.15
2022-10-13T11:01:44.712Z,23.20
2022-10-13T11:03:46.045Z,23.55
2022-10-13T11:05:47.430Z,23.35
2022-10-13T11:07:48.700Z,23.10
2022-10-13T11:09:53.113Z,22.82
2022-10-13T11:11:54.413Z,22.16
2022-10-13T11:13:55.686Z,22.64
2022-10-13T11:15:57.031Z,22.60
2022-10-13T11:17:58.329Z,22.58
2022-10-13T11:20:00.806Z,22.59
2022-10-13T11:22:02.118Z,22.59
2022-10-13T11:24:03.408Z,22.61
2022-10-13T11:26:04.719Z,22.59
2022-10-13T11:28:06.079Z,22.60
2022-10-13T11:30:07.430Z,22.63
2022-10-13T11:32:08.702Z,22.63
2022-10-13T11:34:10.049Z,22.64
2022-10-13T11:36:11.378Z,22.68
2022-10-13T11:38:16.846Z,22.72
2022-10-13T11:40:19.127Z,22.55
2022-10-13T11:42:20.749Z,22.43
2022-10-13T11:44:22.175Z,22.34
2022-10-13T11:46:24.134Z,22.27
2022-10-13T11:48:25.398Z,22.23
2022-10-13T11:50:26.686Z,22.45
2022-10-13T11:52:28.249Z,22.80
2022-10-13T11:54:29.569Z,22.72
2022-10-13T11:56:30.866Z,22.34
2022-10-13T11:58:32.265Z,22.14
2022-10-13T12:00:33.583Z,22.37
2022-10-13T12:02:34.968Z,22.69
2022-10-13T12:04:36.299Z,22.89
2022-10-13T12:06:37.610Z,23.08
2022-10-13T12:08:38.902Z,23.68
2022-10-13T12:10:40.196Z,23.59
2022-10-13T12:12:41.507Z,23.43
2022-10-13T12:14:45.779Z,23.68
2022-10-13T12:16:47.134Z,23.75
2022-10-13T12:18:48.449Z,24.32
2022-10-13T12:20:49.733Z,23.54
2022-10-13T12:22:51.067Z,23.49
2022-10-13T12:24:52.439Z,23.38
2022-10-13T12:26:53.740Z,23.06
2022-10-13T12:28:55.133Z,23.07
2022-10-13T12:30:56.654Z,23.04
2022-10-13T12:32:57.931Z,23.04
2022-10-13T12:34:59.198Z,23.00
2022-10-13T12:37:00.619Z,22.95
2022-10-13T12:39:01.960Z,22.94
2022-10-13T12:41:03.274Z,22.88
2022-10-13T12:43:05.104Z,22.77
2022-10-13T12:45:06.417Z,22.75
2022-10-13T12:47:07.760Z,23.07
2022-10-13T12:49:09.195Z,23.26
2022-10-13T12:51:10.535Z,23.32
2022-10-13T12:53:12.218Z,23.37
2022-10-13T12:55:13.494Z,23.01
2022-10-13T12:57:14.780Z,22.67
2022-10-13T12:59:16.162Z,22.71
2022-10-13T13:01:17.543Z,22.43
2022-10-13T13:03:18.895Z,22.24
2022-10-13T13:05:20.216Z,22.41
2022-10-13T13:07:21.533Z,22.48
2022-10-13T13:09:22.868Z,22.55
2022-10-13T13:11:24.630Z,22.62
2022-10-13T13:13:25.907Z,22.75
2022-10-13T13:15:27.195Z,22.77
2022-10-13T13:19:49.859Z,22.95
2022-10-13T13:23:57.400Z,23.09
2022-10-13T13:25:58.938Z,23.02
2022-10-13T13:28:00.201Z,22.97
2022-10-13T13:30:01.473Z,22.93
2022-10-13T13:32:02.762Z,22.97
2022-10-13T13:34:04.103Z,22.92
2022-10-13T13:36:05.404Z,22.84
2022-10-13T13:38:06.675Z,22.79
2022-10-13T13:40:07.991Z,22.86
2022-10-13T13:42:09.298Z,22.82
2022-10-13T13:44:10.578Z,22.75
2022-10-13T13:46:11.887Z,22.71
2022-10-13T13:48:13.327Z,22.67
2022-10-13T13:50:14.801Z,22.73
2022-10-13T13:52:16.109Z,22.90
2022-10-13T13:54:17.400Z,22.85
2022-10-13T13:56:18.673Z,22.83
2022-10-13T13:58:20.771Z,22.70
2022-10-13T14:00:22.043Z,22.68
2022-10-13T14:02:23.802Z,22.58
2022-10-13T14:06:26.467Z,22.53
2022-10-13T14:08:27.815Z,23.41
2022-10-13T14:10:29.315Z,23.24
2022-10-13T14:12:30.755Z,23.02
2022-10-13T14:14:32.231Z,22.78
2022-10-13T14:16:33.530Z,22.72
2022-10-13T14:18:34.872Z,22.70
2022-10-13T14:20:36.154Z,22.63
2022-10-13T14:22:37.423Z,22.57
2022-10-13T14:26:40.377Z,22.43
2022-10-13T14:28:42.252Z,22.15
2022-10-13T14:30:43.633Z,21.97
2022-10-13T14:32:45.120Z,21.98
2022-10-13T14:34:46.411Z,22.60
2022-10-13T14:36:47.998Z,22.84
2022-10-13T14:38:51.284Z,22.99
2022-10-13T14:40:52.562Z,22.75
2022-10-13T14:42:55.442Z,22.63
2022-10-13T14:44:56.729Z,22.61
2022-10-13T14:46:58.044Z,22.97
2022-10-13T14:49:00.333Z,23.37
2022-10-13T14:51:01.870Z,23.25
2022-10-13T14:53:03.478Z,23.05
2022-10-13T14:55:04.920Z,22.93
2022-10-13T14:57:08.068Z,22.79
2022-10-13T14:59:09.423Z,22.67
2022-10-13T15:01:10.718Z,22.61
2022-10-13T15:03:12.080Z,22.55
2022-10-13T15:05:13.458Z,22.83
2022-10-13T15:07:14.842Z,23.37
2022-10-13T15:09:16.177Z,23.20
2022-10-13T15:11:17.444Z,22.89
2022-10-13T15:13:18.725Z,22.73
2022-10-13T15:15:20.158Z,22.72
2022-10-13T15:17:21.439Z,22.72
2022-10-13T15:19:22.927Z,22.74
2022-10-13T15:21:24.266Z,22.84
2022-10-13T15:23:25.583Z,23.01
2022-10-13T15:25:27.221Z,22.90
2022-10-13T15:27:29.085Z,22.49
2022-10-13T15:29:30.360Z,22.33
2022-10-13T15:31:31.628Z,22.48
2022-10-13T15:33:32.986Z,22.67
2022-10-13T15:35:34.335Z,22.74
2022-10-13T15:37:35.677Z,22.80
2022-10-13T15:39:36.993Z,22.71
2022-10-13T15:41:38.270Z,22.74
2022-10-13T15:43:39.634Z,22.80
2022-10-13T15:45:40.930Z,22.92
2022-10-13T15:47:42.214Z,22.81
2022-10-13T15:49:43.525Z,22.70
2022-10-13T15:51:44.807Z,22.69
2022-10-13T15:53:46.135Z,22.73
2022-10-13T15:55:47.419Z,22.72
2022-10-13T15:57:48.745Z,22.69
2022-10-13T15:59:50.090Z,22.68
2022-10-13T16:01:51.393Z,22.76
2022-10-13T16:03:52.695Z,22.76
2022-10-13T16:05:54.043Z,22.79
2022-10-13T16:07:55.322Z,22.80
2022-10-13T16:09:56.671Z,22.79
2022-10-13T16:11:57.962Z,22.79
2022-10-13T16:13:59.764Z,22.80
2022-10-13T16:16:01.259Z,22.83
2022-10-13T16:18:02.764Z,22.76
2022-10-13T16:20:04.073Z,22.73
2022-10-13T16:22:05.386Z,22.56
2022-10-13T16:24:06.736Z,22.28
2022-10-13T16:26:08.165Z,22.11
2022-10-13T16:28:09.530Z,22.12
2022-10-13T16:30:10.859Z,22.28
2022-10-13T16:32:12.257Z,22.43
2022-10-13T16:34:16.614Z,22.49
2022-10-13T16:36:17.983Z,22.83
2022-10-13T16:38:19.254Z,23.30
2022-10-13T16:40:20.555Z,22.87
2022-10-13T16:42:21.866Z,22.71
2022-10-13T16:44:23.131Z,22.66
2022-10-13T16:46:24.539Z,22.66
2022-10-13T16:48:27.924Z,22.78
2022-10-13T16:50:29.226Z,22.78
2022-10-13T16:52:30.566Z,23.36
2022-10-13T16:54:32.904Z,23.22
2022-10-13T16:56:34.251Z,22.70
2022-10-13T16:58:43.318Z,22.30
2022-10-13T17:00:44.689Z,22.10
2022-10-13T17:02:46.062Z,22.01
2022-10-13T17:04:47.319Z,21.93
2022-10-13T17:06:49.164Z,21.87
2022-10-13T17:08:50.495Z,22.21
2022-10-13T17:10:57.845Z,22.39
2022-10-13T17:12:59.641Z,22.56
2022-10-13T17:15:00.976Z,22.60
2022-10-13T17:17:02.281Z,22.57
2022-10-13T17:19:03.556Z,22.66
2022-10-13T17:21:05.075Z,22.86
2022-10-13T17:23:06.571Z,23.03
2022-10-13T17:25:07.891Z,22.90
2022-10-13T17:27:09.173Z,22.87
2022-10-13T17:29:19.323Z,22.79
2022-10-13T17:31:20.626Z,22.80
2022-10-13T17:33:21.884Z,22.70
2022-10-13T17:35:23.473Z,22.66
2022-10-13T17:37:24.784Z,22.63
2022-10-13T17:39:26.270Z,22.63
2022-10-13T17:41:27.590Z,22.67
2022-10-13T17:43:29.162Z,22.92
2022-10-13T17:45:30.583Z,22.78
2022-10-13T17:47:31.923Z,22.52
2022-10-13T17:49:33.204Z,22.26
2022-10-13T17:51:34.496Z,22.09
2022-10-13T17:53:35.846Z,22.00
2022-10-13T17:55:37.135Z,21.97
2022-10-13T17:57:38.441Z,21.55
2022-10-13T17:59:39.709Z,21.00
2022-10-13T18:01:43.869Z,21.79
2022-10-13T18:03:45.427Z,22.13
2022-10-13T18:05:47.004Z,22.27
2022-10-13T18:07:48.295Z,22.31
2022-10-13T18:09:49.612Z,22.34
2022-10-13T18:11:52.153Z,22.45
2022-10-13T18:13:53.496Z,22.52
2022-10-13T18:16:00.687Z,22.52
2022-10-13T18:18:01.964Z,22.52
2022-10-13T18:20:10.379Z,22.59
2022-10-13T18:22:30.026Z,22.57
2022-10-13T18:24:31.338Z,22.57
2022-10-13T18:26:32.641Z,22.59
2022-10-13T18:28:34.013Z,22.64
2022-10-13T18:30:35.579Z,22.71
2022-10-13T18:32:39.898Z,22.74
2022-10-13T18:34:41.188Z,22.77
2022-10-13T18:36:43.264Z,22.79
2022-10-13T18:38:44.586Z,22.77
2022-10-13T18:40:45.860Z,22.76
2022-10-13T18:42:49.630Z,22.75
2022-10-13T18:44:57.155Z,22.70
2022-10-13T18:46:58.437Z,22.63
2022-10-13T18:48:59.746Z,22.30
2022-10-13T18:51:01.023Z,22.45
2022-10-13T18:53:02.332Z,22.59
2022-10-13T18:55:03.662Z,22.68
2022-10-13T18:57:04.956Z,22.72
2022-10-13T18:59:06.225Z,22.73
2022-10-13T19:01:07.567Z,22.87
2022-10-13T19:03:08.898Z,23.07
2022-10-13T19:05:10.180Z,22.94
2022-10-13T19:07:11.446Z,22.89
2022-10-13T19:09:13.018Z,23.47
2022-10-13T19:11:14.326Z,23.16
2022-10-13T19:13:15.633Z,23.01
2022-10-13T19:15:16.914Z,22.96
2022-10-13T19:17:18.517Z,23.16
2022-10-13T19:19:20.148Z,22.99
2022-10-13T19:21:30.516Z,22.63
2022-10-13T19:23:31.850Z,22.33
2022-10-13T19:25:33.182Z,22.43
2022-10-13T19:27:34.494Z,22.61
2022-10-13T19:29:38.839Z,22.71
2022-10-13T19:31:40.239Z,22.71
2022-10-13T19:33:45.460Z,22.71
2022-10-13T19:35:46.718Z,22.72
2022-10-13T19:37:47.985Z,22.80
2022-10-13T19:39:49.263Z,22.89
2022-10-13T19:41:53.438Z,22.92
2022-10-13T19:43:54.772Z,22.91
2022-10-13T19:45:59.650Z,22.64
2022-10-13T19:48:01.206Z,22.66
2022-10-13T19:50:02.509Z,22.80
2022-10-13T19:52:04.066Z,22.79
2022-10-13T19:54:05.398Z,22.79
2022-10-13T19:56:06.687Z,22.80
2022-10-13T19:58:08.027Z,22.82
2022-10-13T20:00:09.318Z,22.81
2022-10-13T20:02:13.659Z,22.80
2022-10-13T20:04:15.531Z,22.80
2022-10-13T20:06:16.828Z,22.80
2022-10-13T20:08:22.552Z,22.77
2022-10-13T20:10:23.831Z,22.74
2022-10-13T20:12:25.378Z,22.75
2022-10-13T20:14:26.699Z,22.39
2022-10-13T20:16:28.437Z,22.19
2022-10-13T20:18:29.738Z,22.37
2022-10-13T20:20:30.998Z,22.55
2022-10-13T20:22:32.522Z,22.63
2022-10-13T20:24:33.849Z,22.69
2022-10-13T20:26:35.202Z,22.77
2022-10-13T20:28:41.939Z,22.74
2022-10-13T20:30:44.321Z,22.70
2022-10-13T20:32:45.636Z,22.78
2022-10-13T20:34:46.917Z,22.82
2022-10-13T20:36:48.307Z,22.85
2022-10-13T20:38:49.823Z,22.84
2022-10-13T20:40:51.116Z,22.86
2022-10-13T20:42:52.438Z,22.82
2022-10-13T20:44:53.906Z,22.80
2022-10-13T20:46:55.461Z,22.81
2022-10-13T20:49:13.485Z,22.82
2022-10-13T20:51:15.334Z,22.81
2022-10-13T20:53:17.190Z,22.77
2022-10-13T20:55:18.518Z,22.49
2022-10-13T20:57:20.191Z,22.70
2022-10-13T20:59:21.691Z,22.70
2022-10-13T21:01:23.204Z,22.68
2022-10-13T21:03:24.509Z,22.67
2022-10-13T21:05:25.837Z,22.68
2022-10-13T21:07:28.485Z,22.69
2022-10-13T21:09:29.762Z,22.66
2022-10-13T21:11:31.085Z,22.66
2022-10-13T21:13:32.370Z,22.66
2022-10-13T21:15:33.641Z,22.37
2022-10-13T21:17:36.240Z,22.13
2022-10-13T21:19:38.886Z,22.01
2022-10-13T21:21:40.162Z,22.12
2022-10-13T21:23:41.474Z,22.45
2022-10-13T21:25:42.804Z,22.51
2022-10-13T21:27:44.070Z,22.59
2022-10-13T21:29:45.359Z,22.67
2022-10-13T21:31:46.660Z,22.67
2022-10-13T21:33:47.968Z,22.70
2022-10-13T21:35:49.258Z,22.68
2022-10-13T21:37:50.525Z,22.72
2022-10-13T21:39:53.399Z,23.05
2022-10-13T21:41:54.702Z,22.87
2022-10-13T21:43:55.989Z,22.83
2022-10-13T21:45:57.291Z,22.94
2022-10-13T21:47:58.874Z,22.87
2022-10-13T21:50:00.430Z,22.79
2022-10-13T21:52:01.855Z,22.73
2022-10-13T21:54:03.188Z,22.69
2022-10-13T21:56:04.495Z,22.70
2022-10-13T21:58:05.795Z,22.70
2022-10-13T22:00:07.156Z,22.78
2022-10-13T22:02:08.431Z,22.78
2022-10-13T22:04:09.697Z,22.79
2022-10-13T22:06:15.904Z,22.98
2022-10-13T22:08:28.682Z,23.02
2022-10-13T22:10:38.738Z,22.90
2022-10-13T22:12:40.058Z,22.43
2022-10-13T22:14:41.341Z,22.19
2022-10-13T22:16:42.641Z,22.17
2022-10-13T22:18:43.986Z,22.38
2022-10-13T22:20:45.241Z,22.48
2022-10-13T22:22:46.550Z,22.57
2022-10-13T22:24:47.871Z,22.99
2022-10-13T22:26:49.145Z,22.92
2022-10-13T22:28:51.706Z,22.87
2022-10-13T22:30:53.074Z,22.83
2022-10-13T22:32:54.382Z,22.91
2022-10-13T22:34:55.705Z,22.83
2022-10-13T22:36:56.988Z,22.92
2022-10-13T22:38:58.306Z,22.80
2022-10-13T22:40:59.584Z,22.72
2022-10-13T22:43:00.888Z,22.70
2022-10-13T22:45:02.394Z,22.90
2022-10-13T22:47:03.704Z,22.79
2022-10-13T22:49:05.011Z,22.74
2022-10-13T22:51:06.326Z,22.69
2022-10-13T22:53:07.605Z,22.74
2022-10-13T22:55:08.915Z,22.17
2022-10-13T22:57:10.176Z,20.15
2022-10-13T22:59:11.467Z,19.66
2022-10-13T23:01:12.771Z,20.41
2022-10-13T23:03:14.132Z,20.96
2022-10-13T23:05:15.444Z,21.22
2022-10-13T23:07:16.719Z,21.35
2022-10-13T23:09:18.026Z,21.41
2022-10-13T23:11:19.290Z,21.44
2022-10-13T23:13:20.594Z,21.43
2022-10-13T23:15:22.034Z,21.42
2022-10-13T23:17:23.545Z,21.42
2022-10-13T23:19:25.251Z,21.39
2022-10-13T23:21:26.579Z,21.37
2022-10-13T23:23:27.937Z,21.35
2022-10-13T23:25:29.198Z,21.32
2022-10-13T23:27:30.460Z,21.32
2022-10-13T23:29:31.768Z,21.32
2022-10-13T23:31:33.043Z,21.30
2022-10-13T23:33:34.378Z,21.26
2022-10-13T23:35:35.677Z,21.25
2022-10-13T23:37:37.558Z,21.25
2022-10-13T23:39:38.826Z,21.24
2022-10-13T23:41:40.103Z,21.23
2022-10-13T23:43:41.630Z,21.22
2022-10-13T23:45:42.908Z,21.20
2022-10-13T23:47:44.208Z,21.21
2022-10-13T23:49:45.686Z,21.18
2022-10-13T23:51:47.138Z,21.18
2022-10-13T23:53:48.407Z,21.16
2022-10-13T23:55:49.702Z,21.17
2022-10-13T23:57:51.134Z,21.20
2022-10-13T23:59:52.408Z,21.19
